Time;durP1;ratioP1;P1;durP2;ratioP2;P2;SDS_P1;SDS_P2;PMS_P1;PMS_P2;Temp;Humidity;BMP_temperature;BMP_pressure;BME280_temperature;BME280_humidity;BME280_pressure;Samples;Min_cycle;Max_cycle;Signal;HPM_P1;HPM_P2
2021/04/17 00:04:33;;;;;;;7.77;4.00;;;;;;;;;;10405493;28;20232;-73
2021/04/17 00:09:36;;;;;;;8.77;3.87;;;;;;;;;;10399938;28;20215;-73
2021/04/17 00:14:38;;;;;;;8.63;3.77;;;;;;;;;;10401214;28;20216;-73
2021/04/17 00:19:48;;;;;;;8.27;4.20;;;;;;;;;;10405170;28;20216;-73
2021/04/17 00:24:51;;;;;;;12.37;4.20;;;;;;;;;;10406804;28;20577;-73
2021/04/17 00:29:53;;;;;;;8.37;3.90;;;;;;;;;;10397649;28;20212;-74
2021/04/17 00:34:55;;;;;;;9.93;4.00;;;;;;;;;;10404259;28;20971;-73
2021/04/17 00:39:57;;;;;;;7.23;3.80;;;;;;;;;;10404444;28;20236;-72
2021/04/17 00:45:00;;;;;;;8.20;3.70;;;;;;;;;;10397151;28;20219;-72
2021/04/17 00:50:02;;;;;;;7.03;3.87;;;;;;;;;;10399484;28;20783;-74
2021/04/17 00:55:06;;;;;;;8.63;3.80;;;;;;;;;;10403358;28;20676;-74
2021/04/17 01:00:08;;;;;;;7.03;3.30;;;;;;;;;;10398294;28;20493;-73
2021/04/17 01:05:13;;;;;;;5.90;3.20;;;;;;;;;;10404211;28;20357;-73
2021/04/17 01:10:19;;;;;;;8.47;3.40;;;;;;;;;;10399816;28;20223;-73
2021/04/17 01:15:22;;;;;;;8.60;3.63;;;;;;;;;;10396339;28;20220;-73
2021/04/17 01:20:30;;;;;;;6.60;3.23;;;;;;;;;;10406832;28;20317;-73
2021/04/17 01:25:49;;;;;;;7.13;3.27;;;;;;;;;;10400983;28;20207;-73
2021/04/17 01:30:52;;;;;;;3.87;2.70;;;;;;;;;;10399556;28;20212;-73
2021/04/17 01:35:55;;;;;;;7.93;2.93;;;;;;;;;;10400424;28;20215;-73
2021/04/17 01:40:59;;;;;;;6.53;2.77;;;;;;;;;;10399388;28;20243;-73
2021/04/17 01:46:04;;;;;;;8.00;3.10;;;;;;;;;;10380411;28;20203;-73
2021/04/17 01:51:06;;;;;;;6.30;2.93;;;;;;;;;;10402918;28;20216;-73
2021/04/17 01:56:10;;;;;;;8.40;3.20;;;;;;;;;;10402449;28;20226;-73
2021/04/17 02:01:12;;;;;;;6.77;2.77;;;;;;;;;;10398523;28;20236;-73
2021/04/17 02:06:14;;;;;;;4.07;2.50;;;;;;;;;;10401381;28;20216;-73
2021/04/17 02:11:17;;;;;;;5.00;2.70;;;;;;;;;;10397530;28;20231;-74
2021/04/17 02:16:22;;;;;;;5.03;2.90;;;;;;;;;;10399124;28;20223;-73
2021/04/17 02:21:26;;;;;;;6.73;2.73;;;;;;;;;;10404265;28;20239;-73
2021/04/17 02:26:31;;;;;;;7.03;2.90;;;;;;;;;;10403613;28;20237;-73
2021/04/17 02:31:33;;;;;;;5.87;2.70;;;;;;;;;;10410033;28;20219;-73
2021/04/17 02:36:35;;;;;;;5.53;2.63;;;;;;;;;;10405826;28;20217;-72
2021/04/17 02:41:38;;;;;;;6.10;2.70;;;;;;;;;;10410968;28;20241;-73
2021/04/17 02:46:40;;;;;;;5.10;2.50;;;;;;;;;;10407437;28;20216;-72
2021/04/17 02:51:42;;;;;;;9.57;3.20;;;;;;;;;;10411809;28;20613;-73
2021/04/17 02:56:44;;;;;;;6.63;2.73;;;;;;;;;;10404157;28;20217;-73
2021/04/17 03:01:46;;;;;;;7.40;2.70;;;;;;;;;;10399694;28;21664;-73
2021/04/17 03:06:48;;;;;;;6.27;2.93;;;;;;;;;;10406862;28;20211;-72
2021/04/17 03:11:51;;;;;;;9.17;3.63;;;;;;;;;;10407271;28;20227;-73
2021/04/17 03:16:53;;;;;;;7.87;3.63;;;;;;;;;;10404473;28;20519;-72
2021/04/17 03:21:55;;;;;;;9.03;3.63;;;;;;;;;;10410510;28;20258;-73
2021/04/17 03:26:58;;;;;;;8.80;3.00;;;;;;;;;;10405778;28;20212;-73
2021/04/17 03:32:00;;;;;;;9.70;4.40;;;;;;;;;;10403978;28;20208;-72
2021/04/17 03:37:02;;;;;;;23.23;8.97;;;;;;;;;;10403722;28;20389;-72
2021/04/17 03:42:05;;;;;;;14.50;6.70;;;;;;;;;;10408564;28;20247;-71
2021/04/17 03:47:07;;;;;;;11.73;5.63;;;;;;;;;;10404370;28;20293;-73
2021/04/17 03:52:10;;;;;;;17.47;7.83;;;;;;;;;;10401306;28;20216;-73
2021/04/17 03:57:13;;;;;;;16.03;7.13;;;;;;;;;;10404639;28;20574;-73
2021/04/17 04:02:15;;;;;;;10.10;5.10;;;;;;;;;;10406847;28;20377;-72
2021/04/17 04:07:17;;;;;;;15.73;5.63;;;;;;;;;;10402207;28;20246;-72
2021/04/17 04:12:20;;;;;;;11.13;5.07;;;;;;;;;;10403346;28;20212;-72
2021/04/17 04:17:22;;;;;;;10.80;4.43;;;;;;;;;;10403893;28;20214;-72
2021/04/17 04:22:24;;;;;;;9.20;3.63;;;;;;;;;;10401108;28;20232;-73
2021/04/17 04:27:27;;;;;;;9.03;3.63;;;;;;;;;;10404289;28;20227;-73
2021/04/17 04:32:29;;;;;;;7.47;3.73;;;;;;;;;;10403138;28;20209;-72
2021/04/17 04:37:32;;;;;;;7.97;4.00;;;;;;;;;;10401691;28;20670;-73
2021/04/17 04:42:35;;;;;;;7.33;3.70;;;;;;;;;;10398265;28;20453;-72
2021/04/17 04:47:37;;;;;;;8.97;3.70;;;;;;;;;;10404505;28;20218;-73
2021/04/17 04:52:40;;;;;;;11.73;3.80;;;;;;;;;;10403396;28;20295;-72
2021/04/17 04:57:43;;;;;;;11.13;4.03;;;;;;;;;;10403140;28;20231;-73
2021/04/17 05:02:44;;;;;;;8.77;4.10;;;;;;;;;;10397122;28;20265;-74
2021/04/17 05:07:46;;;;;;;9.13;4.57;;;;;;;;;;10403820;28;20312;-72
2021/04/17 05:12:49;;;;;;;15.00;5.67;;;;;;;;;;10402188;28;20227;-73
2021/04/17 05:17:51;;;;;;;14.17;6.03;;;;;;;;;;10406093;28;20222;-73
2021/04/17 05:22:53;;;;;;;12.90;5.40;;;;;;;;;;10398693;28;20235;-73
2021/04/17 05:27:55;;;;;;;11.03;4.90;;;;;;;;;;10397097;28;20212;-73
2021/04/17 05:32:57;;;;;;;8.93;4.57;;;;;;;;;;10407880;28;20212;-72
2021/04/17 05:37:59;;;;;;;11.47;5.00;;;;;;;;;;10402907;28;21032;-73
2021/04/17 05:43:02;;;;;;;15.20;5.93;;;;;;;;;;10404991;28;20327;-73
2021/04/17 05:48:04;;;;;;;15.40;5.93;;;;;;;;;;10406407;28;20222;-71
2021/04/17 05:53:06;;;;;;;10.83;5.37;;;;;;;;;;10392914;28;20271;-73
2021/04/17 05:58:09;;;;;;;11.03;5.20;;;;;;;;;;10402496;28;20709;-73
2021/04/17 06:03:11;;;;;;;13.57;5.17;;;;;;;;;;10399053;28;20305;-73
2021/04/17 06:08:13;;;;;;;13.43;4.90;;;;;;;;;;10407619;28;20335;-73
2021/04/17 06:13:16;;;;;;;7.80;4.20;;;;;;;;;;10408156;28;20207;-73
2021/04/17 06:18:19;;;;;;;8.07;4.00;;;;;;;;;;10409810;28;20214;-73
2021/04/17 06:23:22;;;;;;;9.37;3.90;;;;;;;;;;10420561;28;20384;-73
2021/04/17 06:28:24;;;;;;;9.77;3.60;;;;;;;;;;10412075;28;20314;-73
2021/04/17 06:33:26;;;;;;;10.50;4.07;;;;;;;;;;10409507;28;20219;-73
2021/04/17 06:38:31;;;;;;;7.67;3.83;;;;;;;;;;10409318;28;20246;-72
2021/04/17 06:43:35;;;;;;;7.80;3.40;;;;;;;;;;10407587;28;20660;-73
2021/04/17 06:48:38;;;;;;;8.27;3.37;;;;;;;;;;10406632;28;20219;-74
2021/04/17 06:53:42;;;;;;;5.63;3.10;;;;;;;;;;10409396;28;20570;-72
2021/04/17 06:58:45;;;;;;;9.07;3.37;;;;;;;;;;10410957;28;20208;-76
2021/04/17 07:03:47;;;;;;;6.90;3.40;;;;;;;;;;10409789;28;20235;-76
2021/04/17 07:08:49;;;;;;;7.67;3.60;;;;;;;;;;10408955;28;20294;-72
2021/04/17 07:14:08;;;;;;;6.90;3.50;;;;;;;;;;10411536;28;20585;-72
2021/04/17 07:19:11;;;;;;;9.67;3.67;;;;;;;;;;10409003;28;20224;-72
2021/04/17 07:24:22;;;;;;;7.70;3.10;;;;;;;;;;10412360;28;20603;-72
2021/04/17 07:29:24;;;;;;;12.03;3.27;;;;;;;;;;10405442;28;20232;-73
2021/04/17 07:34:27;;;;;;;4.60;2.73;;;;;;;;;;10406516;28;20220;-73
2021/04/17 07:39:30;;;;;;;4.53;2.20;;;;;;;;;;10406460;28;20271;-72
2021/04/17 07:44:33;;;;;;;6.80;2.03;;;;;;;;;;10410921;28;20636;-73
2021/04/17 07:49:38;;;;;;;6.53;2.33;;;;;;;;;;10409869;28;20334;-73
2021/04/17 07:54:41;;;;;;;6.47;2.23;;;;;;;;;;10411823;28;20885;-73
2021/04/17 07:59:43;;;;;;;7.13;2.80;;;;;;;;;;10401276;28;20211;-72
2021/04/17 08:04:47;;;;;;;8.77;3.00;;;;;;;;;;10408101;28;20560;-73
2021/04/17 08:09:49;;;;;;;5.37;2.30;;;;;;;;;;10408095;28;20893;-72
2021/04/17 08:14:51;;;;;;;7.60;2.67;;;;;;;;;;10400973;28;20239;-73
2021/04/17 08:19:57;;;;;;;3.93;1.90;;;;;;;;;;10417229;28;20219;-73
2021/04/17 08:24:59;;;;;;;4.90;2.00;;;;;;;;;;10409759;28;20301;-73
2021/04/17 08:30:05;;;;;;;4.97;2.20;;;;;;;;;;10411110;28;20219;-73
2021/04/17 08:35:09;;;;;;;4.90;1.63;;;;;;;;;;10406072;28;20291;-73
2021/04/17 08:40:12;;;;;;;6.23;2.00;;;;;;;;;;10408005;28;20798;-75
2021/04/17 08:45:15;;;;;;;7.23;2.20;;;;;;;;;;10401571;28;20235;-74
2021/04/17 08:50:22;;;;;;;6.60;2.20;;;;;;;;;;10412317;28;20306;-74
2021/04/17 08:55:24;;;;;;;5.90;2.20;;;;;;;;;;10404370;28;20689;-74
2021/04/17 09:00:26;;;;;;;7.97;2.73;;;;;;;;;;10408514;28;20222;-79
2021/04/17 09:05:41;;;;;;;6.40;2.30;;;;;;;;;;10409606;28;20243;-76
2021/04/17 09:10:43;;;;;;;4.33;2.03;;;;;;;;;;10406098;28;20319;-76
2021/04/17 09:15:51;;;;;;;4.30;2.20;;;;;;;;;;10403395;28;20212;-76
2021/04/17 09:20:56;;;;;;;4.90;2.40;;;;;;;;;;10401248;28;20581;-73
2021/04/17 09:25:58;;;;;;;5.93;2.10;;;;;;;;;;10407480;28;20212;-73
2021/04/17 09:31:00;;;;;;;6.07;2.10;;;;;;;;;;10405346;28;20337;-73
2021/04/17 09:36:03;;;;;;;6.90;2.30;;;;;;;;;;10409293;28;20219;-74
2021/04/17 09:41:05;;;;;;;8.87;2.83;;;;;;;;;;10411719;28;20235;-73
2021/04/17 09:46:15;;;;;;;4.73;2.17;;;;;;;;;;10412164;28;20208;-74
2021/04/17 09:51:19;;;;;;;7.70;2.07;;;;;;;;;;10413694;28;20227;-74
2021/04/17 09:56:32;;;;;;;6.30;1.90;;;;;;;;;;10412324;28;20211;-75
2021/04/17 10:01:33;;;;;;;3.50;1.93;;;;;;;;;;10409239;28;20836;-74
2021/04/17 10:06:37;;;;;;;10.07;2.10;;;;;;;;;;10414092;28;20212;-73
2021/04/17 10:11:39;;;;;;;4.30;1.90;;;;;;;;;;10410381;28;20250;-73
2021/04/17 10:16:42;;;;;;;5.30;2.10;;;;;;;;;;10415760;28;20212;-73
2021/04/17 10:21:46;;;;;;;5.83;2.13;;;;;;;;;;10409114;28;20243;-74
2021/04/17 10:26:49;;;;;;;10.27;2.43;;;;;;;;;;10412970;28;20961;-73
2021/04/17 10:32:01;;;;;;;5.30;2.07;;;;;;;;;;10407923;28;20212;-73
2021/04/17 10:37:07;;;;;;;4.23;1.90;;;;;;;;;;10411516;28;20792;-74
2021/04/17 10:42:10;;;;;;;7.40;2.00;;;;;;;;;;10412271;28;20239;-76
2021/04/17 10:47:11;;;;;;;8.50;2.67;;;;;;;;;;10408537;28;20292;-73
2021/04/17 10:52:26;;;;;;;6.57;2.10;;;;;;;;;;10407613;28;20215;-73
2021/04/17 10:57:42;;;;;;;5.37;2.53;;;;;;;;;;10416243;28;20596;-73
2021/04/17 11:02:49;;;;;;;4.87;2.17;;;;;;;;;;10413219;28;20414;-75
2021/04/17 11:07:57;;;;;;;4.67;2.20;;;;;;;;;;10417544;28;20211;-72
2021/04/17 11:12:59;;;;;;;7.27;2.50;;;;;;;;;;10410124;28;20220;-73
2021/04/17 11:18:08;;;;;;;7.27;2.53;;;;;;;;;;10415356;28;20219;-72
2021/04/17 11:23:26;;;;;;;5.45;2.50;;;;;;;;;;10406971;28;20941;-73
2021/04/17 11:28:29;;;;;;;7.30;2.73;;;;;;;;;;10413402;28;20225;-73
2021/04/17 11:33:31;;;;;;;5.80;2.33;;;;;;;;;;10413239;28;20224;-74
2021/04/17 11:38:34;;;;;;;6.27;2.53;;;;;;;;;;10413317;28;20235;-73
2021/04/17 11:43:38;;;;;;;5.60;2.37;;;;;;;;;;10411043;28;20358;-73
2021/04/17 11:48:42;;;;;;;5.90;2.70;;;;;;;;;;10413837;28;20219;-73
2021/04/17 11:53:44;;;;;;;6.77;2.80;;;;;;;;;;10407306;28;20213;-73
2021/04/17 11:58:47;;;;;;;4.57;2.50;;;;;;;;;;10415741;28;20207;-72
2021/04/17 12:03:49;;;;;;;7.23;2.30;;;;;;;;;;10418927;28;20236;-72
2021/04/17 12:08:51;;;;;;;11.03;2.40;;;;;;;;;;10413600;28;21086;-74
2021/04/17 12:13:53;;;;;;;4.50;2.30;;;;;;;;;;10418612;28;20215;-74
2021/04/17 12:18:55;;;;;;;12.33;2.80;;;;;;;;;;10412578;28;20538;-73
2021/04/17 12:23:57;;;;;;;4.87;2.27;;;;;;;;;;10405288;28;20240;-75
2021/04/17 12:29:00;;;;;;;7.50;2.53;;;;;;;;;;10399581;28;20569;-72
2021/04/17 12:34:02;;;;;;;8.13;2.93;;;;;;;;;;10408359;28;20668;-73
2021/04/17 12:39:04;;;;;;;9.40;2.90;;;;;;;;;;10408234;28;20254;-77
2021/04/17 12:44:10;;;;;;;5.23;2.63;;;;;;;;;;10408428;28;20232;-74
2021/04/17 12:49:12;;;;;;;7.90;2.63;;;;;;;;;;10412095;28;20236;-74
2021/04/17 12:54:14;;;;;;;9.87;3.03;;;;;;;;;;10409824;28;20211;-73
2021/04/17 12:59:16;;;;;;;7.33;2.70;;;;;;;;;;10406391;28;20223;-73
2021/04/17 13:04:18;;;;;;;8.73;2.87;;;;;;;;;;10416769;28;20266;-73
2021/04/17 13:09:20;;;;;;;7.53;2.50;;;;;;;;;;10406865;28;20216;-73
2021/04/17 13:14:23;;;;;;;9.43;2.60;;;;;;;;;;10405762;28;20235;-72
2021/04/17 13:19:27;;;;;;;7.57;2.60;;;;;;;;;;10403706;28;20219;-72
2021/04/17 13:24:30;;;;;;;7.77;2.77;;;;;;;;;;10406078;28;20231;-74
2021/04/17 13:29:32;;;;;;;6.47;2.80;;;;;;;;;;10403959;28;20461;-73
2021/04/17 13:34:35;;;;;;;7.50;2.70;;;;;;;;;;10408013;28;20539;-73
2021/04/17 13:39:37;;;;;;;8.00;2.87;;;;;;;;;;10403462;28;20285;-73
2021/04/17 13:44:40;;;;;;;8.43;2.83;;;;;;;;;;10406390;28;20239;-73
2021/04/17 13:49:42;;;;;;;8.60;3.10;;;;;;;;;;10405676;28;20218;-73
2021/04/17 13:54:44;;;;;;;6.53;2.73;;;;;;;;;;10407129;28;20689;-73
2021/04/17 13:59:47;;;;;;;5.57;2.47;;;;;;;;;;10402825;28;20207;-73
2021/04/17 14:04:49;;;;;;;5.60;2.73;;;;;;;;;;10411181;28;20247;-73
2021/04/17 14:09:50;;;;;;;6.30;2.63;;;;;;;;;;10404564;28;20223;-73
2021/04/17 14:14:53;;;;;;;5.40;2.40;;;;;;;;;;10408319;28;21112;-73
2021/04/17 14:19:55;;;;;;;7.53;2.93;;;;;;;;;;10404677;28;20219;-73
2021/04/17 14:24:57;;;;;;;10.37;3.00;;;;;;;;;;10415816;28;20246;-73
2021/04/17 14:29:59;;;;;;;5.53;2.67;;;;;;;;;;10407885;28;20216;-74
2021/04/17 14:35:04;;;;;;;7.90;3.03;;;;;;;;;;10418858;28;20224;-74
2021/04/17 14:40:07;;;;;;;8.00;2.77;;;;;;;;;;10417412;28;20235;-74
2021/04/17 14:45:29;;;;;;;5.33;2.80;;;;;;;;;;10415109;28;20227;-73
2021/04/17 14:50:32;;;;;;;6.87;2.60;;;;;;;;;;10417662;28;20250;-74
2021/04/17 14:55:43;;;;;;;8.83;2.77;;;;;;;;;;10413655;28;20592;-75
2021/04/17 15:00:46;;;;;;;5.80;2.57;;;;;;;;;;10412242;28;20212;-77
2021/04/17 15:05:48;;;;;;;7.37;2.90;;;;;;;;;;10408340;28;20239;-76
2021/04/17 15:10:50;;;;;;;6.37;2.80;;;;;;;;;;10413200;28;20588;-74
2021/04/17 15:15:53;;;;;;;5.73;2.80;;;;;;;;;;10409934;28;20685;-75
2021/04/17 15:20:55;;;;;;;6.97;2.53;;;;;;;;;;10414889;28;20226;-75
2021/04/17 15:25:57;;;;;;;5.83;2.77;;;;;;;;;;10415481;28;21481;-75
2021/04/17 15:31:01;;;;;;;6.30;2.60;;;;;;;;;;10410594;28;20677;-75
2021/04/17 15:36:03;;;;;;;6.43;2.60;;;;;;;;;;10407236;28;20265;-72
2021/04/17 15:41:06;;;;;;;6.47;2.80;;;;;;;;;;10411275;28;20242;-74
2021/04/17 15:46:10;;;;;;;7.27;2.90;;;;;;;;;;10408292;28;20246;-74
2021/04/17 15:51:12;;;;;;;5.57;2.93;;;;;;;;;;10677893;22;20715;-80
2021/04/17 15:56:14;;;;;;;8.97;3.00;;;;;;;;;;10444483;28;20215;-79
2021/04/17 16:17:29;;;;;;;7.73;2.80;;;;;;;;;;10473076;28;20218;-83
2021/04/17 16:22:30;;;;;;;8.23;3.20;;;;;;;;;;10477720;28;20276;-83
2021/04/17 16:27:32;;;;;;;4.97;2.60;;;;;;;;;;10470333;28;20248;-80
2021/04/17 16:32:34;;;;;;;6.50;2.60;;;;;;;;;;10479082;28;20202;-82
2021/04/17 16:37:35;;;;;;;7.47;2.60;;;;;;;;;;10807914;22;20254;-84
2021/04/17 16:42:37;;;;;;;5.90;2.77;;;;;;;;;;10396504;28;20806;-85
2021/04/17 16:47:39;;;;;;;5.80;2.70;;;;;;;;;;10824785;22;20736;-82
2021/04/17 16:52:40;;;;;;;5.33;2.37;;;;;;;;;;10439441;28;20218;-85
2021/04/17 16:57:42;;;;;;;5.90;2.47;;;;;;;;;;10435516;28;20216;-82
2021/04/17 17:02:44;;;;;;;7.10;2.47;;;;;;;;;;10434996;28;20242;-89
2021/04/17 17:07:46;;;;;;;6.13;2.73;;;;;;;;;;10433277;28;20722;-86
2021/04/17 17:18:05;;;;;;;7.47;2.80;;;;;;;;;;2214624;22;20671;-91
2021/04/17 17:23:07;;;;;;;7.57;2.70;;;;;;;;;;10360742;28;20271;-90
2021/04/17 17:28:09;;;;;;;6.87;2.90;;;;;;;;;;10348483;28;20220;-83
2021/04/17 17:33:11;;;;;;;9.10;2.73;;;;;;;;;;10356200;28;20672;-87
2021/04/17 17:38:13;;;;;;;6.83;2.50;;;;;;;;;;10335685;28;20351;-82
2021/04/17 17:43:16;;;;;;;5.47;2.47;;;;;;;;;;10313837;28;20660;-90
2021/04/17 17:48:19;;;;;;;9.17;2.80;;;;;;;;;;10309206;28;20302;-89
2021/04/17 17:53:21;;;;;;;8.73;2.80;;;;;;;;;;10308889;28;20312;-86
2021/04/17 17:58:24;;;;;;;7.23;2.70;;;;;;;;;;10317008;28;20228;-90
2021/04/17 18:03:28;;;;;;;8.90;3.10;;;;;;;;;;10326130;28;20237;-89
2021/04/17 18:08:29;;;;;;;6.87;2.90;;;;;;;;;;10329951;28;20308;-88
2021/04/17 18:13:31;;;;;;;4.23;2.33;;;;;;;;;;10349490;28;20210;-90
2021/04/17 18:18:34;;;;;;;8.83;2.53;;;;;;;;;;10324684;28;20231;-93
2021/04/17 18:23:36;;;;;;;6.47;2.67;;;;;;;;;;10315524;28;20291;-89
2021/04/17 18:28:39;;;;;;;6.27;2.50;;;;;;;;;;10480872;22;20493;-88
2021/04/17 18:33:43;;;;;;;6.93;2.90;;;;;;;;;;10461641;28;20218;-89
2021/04/17 18:38:46;;;;;;;7.17;3.33;;;;;;;;;;10465786;28;20215;-90
2021/04/17 18:49:59;;;;;;;6.63;2.83;;;;;;;;;;10462375;28;20542;-88
2021/04/17 18:55:01;;;;;;;5.57;2.47;;;;;;;;;;10463968;28;20225;-88
2021/04/17 19:00:07;;;;;;;6.37;2.70;;;;;;;;;;10458622;28;20322;-86
2021/04/17 19:05:28;;;;;;;4.67;2.53;;;;;;;;;;10451660;28;20259;-86
2021/04/17 19:10:32;;;;;;;7.90;2.70;;;;;;;;;;10455683;28;20223;-87
2021/04/17 19:15:35;;;;;;;9.43;3.20;;;;;;;;;;10446200;28;20207;-86
2021/04/17 19:20:37;;;;;;;6.33;3.50;;;;;;;;;;10455333;28;20210;-87
2021/04/17 19:25:52;;;;;;;8.47;3.43;;;;;;;;;;10460808;28;20262;-87
2021/04/17 19:30:54;;;;;;;10.57;2.80;;;;;;;;;;10438317;28;20650;-86
2021/04/17 19:35:56;;;;;;;9.27;2.77;;;;;;;;;;10432811;28;20338;-87
2021/04/17 19:41:03;;;;;;;7.50;3.27;;;;;;;;;;10439216;28;20206;-87
2021/04/17 19:46:05;;;;;;;7.63;2.90;;;;;;;;;;10442759;28;20234;-87
2021/04/17 19:56:25;;;;;;;11.60;3.77;;;;;;;;;;12228240;22;20247;-83
2021/04/17 20:01:33;;;;;;;11.07;4.00;;;;;;;;;;10435708;28;20219;-84
2021/04/17 20:06:35;;;;;;;8.57;3.57;;;;;;;;;;10435029;28;20239;-86
2021/04/17 20:11:38;;;;;;;10.77;3.37;;;;;;;;;;10432038;28;20215;-84
2021/04/17 20:16:39;;;;;;;6.67;2.93;;;;;;;;;;10434311;28;20220;-83
2021/04/17 20:21:43;;;;;;;7.60;2.90;;;;;;;;;;10436693;28;20203;-82
2021/04/17 20:26:51;;;;;;;8.87;3.43;;;;;;;;;;10663408;22;20248;-76
2021/04/17 20:31:53;;;;;;;10.43;3.47;;;;;;;;;;10457247;28;20226;-77
2021/04/17 20:36:57;;;;;;;10.03;3.73;;;;;;;;;;10455865;28;20302;-77
2021/04/17 20:48:12;;;;;;;11.27;4.10;;;;;;;;;;10457833;28;20206;-77
2021/04/17 20:53:14;;;;;;;12.33;4.27;;;;;;;;;;10457614;28;20218;-78
2021/04/17 21:21:51;;;;;;;14.27;5.67;;;;;;;;;;10457129;28;20227;-78
2021/04/17 21:26:53;;;;;;;20.33;8.40;;;;;;;;;;10455168;28;20234;-77
2021/04/17 21:31:55;;;;;;;22.63;8.07;;;;;;;;;;10458393;28;20605;-78
2021/04/17 21:36:58;;;;;;;13.03;4.57;;;;;;;;;;10468023;28;20300;-77
2021/04/17 21:42:03;;;;;;;13.13;4.30;;;;;;;;;;10429131;28;20214;-78
2021/04/17 21:47:05;;;;;;;13.63;4.90;;;;;;;;;;10431676;28;20241;-77
2021/04/17 21:52:09;;;;;;;10.23;3.77;;;;;;;;;;10428917;28;20216;-77
2021/04/17 21:57:11;;;;;;;10.67;3.60;;;;;;;;;;10431123;28;20246;-76
2021/04/17 22:02:12;;;;;;;9.70;3.63;;;;;;;;;;10428556;28;20215;-79
2021/04/17 22:07:15;;;;;;;10.60;4.30;;;;;;;;;;10434331;28;20247;-79
2021/04/17 22:12:17;;;;;;;9.97;3.97;;;;;;;;;;10428123;28;20208;-78
2021/04/17 22:17:19;;;;;;;9.37;3.33;;;;;;;;;;10428841;28;20243;-78
2021/04/17 22:22:22;;;;;;;8.77;3.20;;;;;;;;;;10424513;28;20754;-77
2021/04/17 22:27:23;;;;;;;11.93;4.13;;;;;;;;;;10429066;28;20699;-77
2021/04/17 22:32:25;;;;;;;11.47;3.77;;;;;;;;;;10429734;28;20588;-80
2021/04/17 22:37:29;;;;;;;10.43;3.50;;;;;;;;;;10434265;28;20258;-80
2021/04/17 22:42:31;;;;;;;8.00;3.77;;;;;;;;;;10429360;28;20686;-80
2021/04/17 22:47:33;;;;;;;7.33;3.47;;;;;;;;;;10421135;28;20216;-80
2021/04/17 22:52:36;;;;;;;8.33;3.87;;;;;;;;;;10428031;28;20630;-81
2021/04/17 22:57:38;;;;;;;9.50;3.30;;;;;;;;;;10425046;28;20216;-79
2021/04/17 23:02:40;;;;;;;7.53;3.37;;;;;;;;;;10422503;28;20807;-80
2021/04/17 23:07:46;;;;;;;9.23;3.40;;;;;;;;;;10429118;28;20758;-80
2021/04/17 23:12:48;;;;;;;8.70;4.10;;;;;;;;;;10427292;28;20237;-79
2021/04/17 23:17:50;;;;;;;8.77;3.70;;;;;;;;;;10425945;28;20218;-80
2021/04/17 23:22:53;;;;;;;11.93;4.13;;;;;;;;;;10436252;28;20326;-80
2021/04/17 23:27:55;;;;;;;9.93;3.90;;;;;;;;;;10423103;28;20615;-80
2021/04/17 23:32:59;;;;;;;12.57;4.33;;;;;;;;;;10430279;28;20244;-80
2021/04/17 23:38:06;;;;;;;13.00;4.70;;;;;;;;;;10430686;28;20239;-80
2021/04/17 23:43:08;;;;;;;12.40;4.43;;;;;;;;;;10429665;28;20567;-80
2021/04/17 23:48:10;;;;;;;9.90;4.07;;;;;;;;;;10422426;28;20219;-80
2021/04/17 23:53:13;;;;;;;9.20;3.80;;;;;;;;;;10426819;28;20219;-80
2021/04/17 23:58:15;;;;;;;10.87;4.57;;;;;;;;;;10428106;28;20252;-80
